Time;durP1;ratioP1;P1;durP2;ratioP2;P2;SDS_P1;SDS_P2;PMS_P1;PMS_P2;Temp;Humidity;BMP_temperature;BMP_pressure;BME280_temperature;BME280_humidity;BME280_pressure;Samples;Min_cycle;Max_cycle;Signal;HPM_P1;HPM_P2
2022/09/15 00:00:29;;;;;;;52.85;21.83;;;;;;;11.68;100.00;100767.03;5287409;28;20468;-73
2022/09/15 00:02:59;;;;;;;51.85;21.20;;;;;;;11.66;100.00;100774.44;5286350;28;20027;-74
2022/09/15 00:05:30;;;;;;;67.97;23.42;;;;;;;11.64;100.00;100772.94;5285852;28;20037;-74
2022/09/15 00:08:01;;;;;;;66.85;24.70;;;;;;;11.63;100.00;100764.03;5287354;28;20031;-74
2022/09/15 00:10:32;;;;;;;59.35;23.75;;;;;;;11.59;100.00;100767.25;5286737;28;20153;-73
2022/09/15 00:13:02;;;;;;;61.90;23.38;;;;;;;11.55;100.00;100766.78;5278899;28;20110;-74
2022/09/15 00:15:34;;;;;;;71.20;23.90;;;;;;;11.51;100.00;100761.94;5282056;28;20069;-74
2022/09/15 00:18:05;;;;;;;96.80;21.55;;;;;;;11.46;100.00;100767.81;5265819;28;20024;-75
2022/09/15 00:20:41;;;;;;;146.80;24.75;;;;;;;11.36;100.00;100762.66;5265171;28;20322;-74
2022/09/15 00:23:13;;;;;;;160.55;21.17;;;;;;;11.38;100.00;100751.72;5278026;28;20024;-73
2022/09/15 00:25:47;;;;;;;39.97;17.00;;;;;;;11.30;100.00;100752.59;5283318;28;20393;-73
2022/09/15 00:28:20;;;;;;;37.78;16.40;;;;;;;11.23;100.00;100756.16;5286623;28;20098;-73
2022/09/15 00:30:53;;;;;;;48.35;16.77;;;;;;;11.22;100.00;100744.56;5286781;28;20027;-74
2022/09/15 00:33:23;;;;;;;49.50;18.58;;;;;;;11.22;100.00;100747.25;5270164;28;20032;-74
2022/09/15 00:35:54;;;;;;;53.40;19.35;;;;;;;11.21;100.00;100747.44;5281306;28;20020;-73
2022/09/15 00:38:24;;;;;;;53.35;20.33;;;;;;;11.16;100.00;100758.69;5285644;28;20107;-74
2022/09/15 00:40:56;;;;;;;53.55;18.65;;;;;;;11.09;100.00;100761.22;5286480;28;20034;-74
2022/09/15 00:43:49;;;;;;;46.67;16.70;;;;;;;11.02;100.00;100756.72;5272578;28;20023;-73
2022/09/15 00:46:26;;;;;;;70.55;15.65;;;;;;;10.96;100.00;100762.75;5282925;28;20024;-74
2022/09/15 00:49:02;;;;;;;50.05;14.82;;;;;;;10.89;100.00;100757.22;5275703;28;20020;-73
2022/09/15 00:51:53;;;;;;;66.68;15.45;;;;;;;10.82;100.00;100753.56;5272434;28;20035;-73
2022/09/15 00:54:59;;;;;;;125.75;18.45;;;;;;;10.79;100.00;100754.75;5285369;28;20412;-73
2022/09/15 00:57:54;;;;;;;35.00;14.73;;;;;;;10.81;100.00;100758.09;5252776;28;20043;-73
2022/09/15 01:00:27;;;;;;;60.72;17.90;;;;;;;10.77;100.00;100753.22;5265109;28;20035;-73
2022/09/15 01:02:58;;;;;;;77.55;19.88;;;;;;;10.78;100.00;100763.78;5284652;28;20073;-73
2022/09/15 01:05:33;;;;;;;48.13;18.70;;;;;;;10.78;100.00;100761.09;5286002;28;20026;-72
2022/09/15 01:08:21;;;;;;;74.20;20.33;;;;;;;10.79;100.00;100754.75;5276930;28;20385;-73
2022/09/15 01:10:52;;;;;;;103.32;19.58;;;;;;;10.77;100.00;100763.97;5265374;28;20072;-73
2022/09/15 01:13:43;;;;;;;79.10;22.95;;;;;;;10.78;100.00;100761.09;5263190;28;20031;-72
2022/09/15 01:16:33;;;;;;;61.47;21.83;;;;;;;10.83;100.00;100764.09;5269399;28;20024;-72
2022/09/15 01:19:36;;;;;;;72.97;24.73;;;;;;;10.96;100.00;100763.59;5265312;28;20120;-73
2022/09/15 01:22:49;;;;;;;80.88;24.45;;;;;;;11.08;100.00;100767.59;5270974;28;20089;-73
2022/09/15 01:25:49;;;;;;;88.80;27.17;;;;;;;11.17;100.00;100762.22;5281801;28;20439;-73
2022/09/15 01:28:38;;;;;;;93.88;26.45;;;;;;;11.22;100.00;100770.59;5266291;28;20016;-72
2022/09/15 01:31:16;;;;;;;79.38;24.90;;;;;;;11.31;100.00;100764.19;5286382;28;20217;-73
2022/09/15 01:34:03;;;;;;;78.10;25.75;;;;;;;11.45;100.00;100765.31;5278259;28;20028;-73
2022/09/15 01:36:45;;;;;;;85.00;25.83;;;;;;;11.51;100.00;100757.38;5282661;28;20564;-73
2022/09/15 01:39:23;;;;;;;73.65;25.52;;;;;;;11.60;100.00;100768.94;5265060;28;20098;-73
2022/09/15 01:41:58;;;;;;;83.35;28.60;;;;;;;11.72;100.00;100759.47;5271805;28;20031;-73
2022/09/15 01:44:33;;;;;;;;;;;;;;;11.78;100.00;100769.50;5271891;28;20489;-73
2022/09/15 01:47:09;;;;;;;91.05;28.23;;;;;;;11.83;100.00;100769.00;5276416;28;19998;-74
2022/09/15 01:49:47;;;;;;;102.40;30.58;;;;;;;11.90;100.00;100775.38;5268906;28;20430;-74
2022/09/15 01:52:21;;;;;;;103.75;30.90;;;;;;;11.91;100.00;100763.59;5286006;28;20024;-74
2022/09/15 01:54:56;;;;;;;92.63;28.30;;;;;;;11.89;100.00;100773.69;5271541;28;20423;-74
2022/09/15 01:57:27;;;;;;;78.05;27.73;;;;;;;11.88;100.00;100772.00;5283889;28;20027;-74
2022/09/15 01:59:59;;;;;;;82.50;27.08;;;;;;;11.85;100.00;100765.16;5264931;28;20130;-74
2022/09/15 02:02:36;;;;;;;79.30;27.50;;;;;;;11.82;100.00;100767.34;5281435;28;20016;-74
2022/09/15 02:05:19;;;;;;;89.55;26.92;;;;;;;11.84;100.00;100770.69;5285368;28;20047;-74
2022/09/15 02:08:00;;;;;;;72.18;26.92;;;;;;;11.79;100.00;100775.72;5265758;28;20145;-73
2022/09/15 02:10:57;;;;;;;89.97;29.02;;;;;;;11.77;100.00;100783.13;5264578;28;20024;-73
2022/09/15 02:13:44;;;;;;;87.53;29.92;;;;;;;11.79;100.00;100779.25;5281727;28;20055;-74
2022/09/15 02:16:19;;;;;;;91.07;31.38;;;;;;;11.82;100.00;100778.09;5272299;28;20093;-74
2022/09/15 02:19:08;;;;;;;89.45;30.17;;;;;;;11.88;100.00;100780.06;5268312;28;20031;-73
2022/09/15 02:21:52;;;;;;;87.13;30.08;;;;;;;11.90;100.00;100776.22;5281545;28;20029;-74
2022/09/15 02:24:29;;;;;;;93.22;28.40;;;;;;;11.96;100.00;100765.75;5288335;28;20034;-74
2022/09/15 02:27:03;;;;;;;101.95;31.02;;;;;;;12.03;100.00;100764.03;5275828;28;20026;-74
2022/09/15 02:29:35;;;;;;;100.20;31.60;;;;;;;12.08;100.00;100761.66;5278274;28;20097;-74
2022/09/15 02:32:07;;;;;;;97.95;32.42;;;;;;;12.12;100.00;100761.13;5273657;28;20027;-75
2022/09/15 02:34:43;;;;;;;86.63;30.88;;;;;;;12.16;100.00;100764.28;5288385;28;20028;-75
2022/09/15 02:37:14;;;;;;;95.97;33.20;;;;;;;12.21;100.00;100761.91;5276171;28;20110;-75
2022/09/15 02:39:50;;;;;;;94.63;30.70;;;;;;;12.24;100.00;100774.13;5273635;28;20504;-74
2022/09/15 02:42:23;;;;;;;84.88;31.13;;;;;;;12.26;100.00;100770.28;5277804;28;20493;-74
2022/09/15 02:44:54;;;;;;;90.03;32.42;;;;;;;12.28;100.00;100770.09;5284219;28;20023;-74
2022/09/15 02:47:27;;;;;;;100.28;32.20;;;;;;;12.29;100.00;100769.91;5267521;28;20065;-74
2022/09/15 02:49:57;;;;;;;89.03;31.30;;;;;;;12.29;100.00;100767.19;5281102;28;20016;-73
2022/09/15 02:52:28;;;;;;;91.72;33.95;;;;;;;12.32;100.00;100764.16;5267813;28;20492;-73
2022/09/15 02:54:59;;;;;;;92.78;31.67;;;;;;;12.35;100.00;100773.72;5280580;28;20102;-73
2022/09/15 02:57:30;;;;;;;90.38;32.88;;;;;;;12.36;100.00;100761.97;5281169;28;20019;-73
2022/09/15 03:00:12;;;;;;;85.28;31.55;;;;;;;12.39;100.00;100766.97;5267143;28;20031;-73
2022/09/15 03:02:46;;;;;;;90.80;33.42;;;;;;;12.40;100.00;100761.44;5274455;28;20077;-73
2022/09/15 03:05:21;;;;;;;95.82;34.15;;;;;;;12.40;100.00;100764.13;5287508;28;20084;-74
2022/09/15 03:07:52;;;;;;;87.90;32.03;;;;;;;12.42;100.00;100761.25;5288729;28;20012;-74
2022/09/15 03:10:23;;;;;;;95.40;33.17;;;;;;;12.44;100.00;100767.25;5288070;28;20076;-74
2022/09/15 03:12:54;;;;;;;77.45;31.25;;;;;;;12.44;100.00;100764.56;5280614;28;20028;-74
2022/09/15 03:15:25;;;;;;;88.75;32.42;;;;;;;12.44;100.00;100770.78;5277448;28;20110;-74
2022/09/15 03:17:56;;;;;;;82.13;32.10;;;;;;;12.44;100.00;100772.66;5276449;28;20362;-73
2022/09/15 03:20:27;;;;;;;96.93;34.88;;;;;;;12.48;100.00;100770.44;5271294;28;20050;-74
2022/09/15 03:22:57;;;;;;;98.68;34.50;;;;;;;12.49;100.00;100774.78;5266457;28;20035;-75
2022/09/15 03:25:28;;;;;;;83.30;32.92;;;;;;;12.49;100.00;100762.19;5270681;28;20027;-74
2022/09/15 03:27:58;;;;;;;85.10;31.50;;;;;;;12.49;100.00;100769.41;5288564;28;20051;-75
2022/09/15 03:30:29;;;;;;;84.35;30.33;;;;;;;12.51;100.00;100770.09;5268600;28;20030;-74
2022/09/15 03:32:59;;;;;;;84.72;32.47;;;;;;;12.55;100.00;100774.06;5279971;28;20102;-74
2022/09/15 03:35:30;;;;;;;90.10;32.15;;;;;;;12.59;100.00;100770.84;5279801;28;20137;-74
2022/09/15 03:38:00;;;;;;;89.43;33.17;;;;;;;12.60;100.00;100769.84;5274141;28;20131;-73
2022/09/15 03:40:32;;;;;;;79.78;31.58;;;;;;;12.62;100.00;100769.66;5287980;28;20118;-72
2022/09/15 03:43:02;;;;;;;85.15;32.85;;;;;;;12.63;100.00;100774.84;5274216;28;20024;-73
2022/09/15 03:45:33;;;;;;;89.65;33.03;;;;;;;12.63;100.00;100769.47;5286761;28;20028;-73
2022/09/15 03:48:05;;;;;;;85.72;32.30;;;;;;;12.63;100.00;100771.31;5284787;28;20028;-71
2022/09/15 03:50:35;;;;;;;92.70;34.45;;;;;;;12.61;100.00;100771.50;5276864;28;20028;-71
2022/09/15 03:53:06;;;;;;;89.47;32.58;;;;;;;12.62;100.00;100770.47;5287969;28;20389;-70
2022/09/15 03:55:36;;;;;;;84.18;32.83;;;;;;;12.60;100.00;100771.66;5286938;28;20106;-73
2022/09/15 03:58:07;;;;;;;81.70;31.80;;;;;;;12.63;100.00;100764.06;5286979;28;20077;-73
2022/09/15 04:00:38;;;;;;;87.47;32.92;;;;;;;12.58;100.00;100760.25;5287254;28;20057;-74
2022/09/15 04:03:09;;;;;;;78.15;31.45;;;;;;;12.53;100.00;100762.66;5277247;28;20401;-74
2022/09/15 04:05:40;;;;;;;97.13;32.40;;;;;;;12.48;100.00;100752.44;5286492;28;20036;-72
2022/09/15 04:08:11;;;;;;;93.03;32.58;;;;;;;12.48;100.00;100748.91;5278189;28;20012;-73
2022/09/15 04:10:42;;;;;;;80.45;33.13;;;;;;;12.44;100.00;100745.75;5266047;28;20016;-73
2022/09/15 04:13:13;;;;;;;90.82;33.72;;;;;;;12.42;100.00;100755.84;5277517;28;20782;-73
2022/09/15 04:15:43;;;;;;;94.30;34.42;;;;;;;12.39;100.00;100745.44;5277033;28;20032;-73
2022/09/15 04:18:14;;;;;;;83.57;32.08;;;;;;;12.36;100.00;100751.19;5275130;28;20027;-73
2022/09/15 04:20:44;;;;;;;90.22;31.73;;;;;;;12.33;100.00;100756.94;5285556;28;20019;-72
2022/09/15 04:23:15;;;;;;;78.90;29.95;;;;;;;12.28;100.00;100765.53;5286887;28;20108;-73
2022/09/15 04:26:06;;;;;;;81.32;31.65;;;;;;;12.21;100.00;100767.28;5279580;28;20061;-73
2022/09/15 04:28:37;;;;;;;82.60;31.23;;;;;;;12.14;100.00;100771.69;5282822;28;20030;-73
2022/09/15 04:31:10;;;;;;;86.53;31.98;;;;;;;12.09;100.00;100777.59;5275855;28;20507;-73
2022/09/15 04:33:42;;;;;;;96.78;34.38;;;;;;;12.05;100.00;100773.59;5283954;28;20100;-72
2022/09/15 04:36:15;;;;;;;96.63;31.75;;;;;;;12.02;100.00;100773.94;5272977;28;20366;-73
2022/09/15 04:38:46;;;;;;;104.70;34.85;;;;;;;11.98;100.00;100769.94;5265535;28;20081;-73
2022/09/15 04:41:18;;;;;;;93.53;33.63;;;;;;;11.93;100.00;100781.22;5266866;28;20047;-72
2022/09/15 04:43:48;;;;;;;92.50;33.60;;;;;;;11.91;100.00;100769.81;5287525;28;20036;-73
2022/09/15 04:46:19;;;;;;;86.70;32.42;;;;;;;11.89;100.00;100776.38;5274141;28;20028;-73
2022/09/15 04:48:50;;;;;;;85.47;30.95;;;;;;;11.87;100.00;100773.88;5265334;28;20020;-72
2022/09/15 04:51:22;;;;;;;88.72;32.83;;;;;;;11.88;100.00;100769.31;5283488;28;20023;-73
2022/09/15 04:53:53;;;;;;;110.82;35.90;;;;;;;11.91;100.00;100780.56;5274890;28;20052;-73
2022/09/15 04:56:25;;;;;;;116.95;36.75;;;;;;;11.93;100.00;100777.69;5265138;28;20487;-73
2022/09/15 04:58:58;;;;;;;98.60;36.20;;;;;;;11.90;100.00;100776.22;5265299;28;20028;-73
2022/09/15 05:01:31;;;;;;;100.05;34.13;;;;;;;11.86;100.00;100776.75;5265610;28;20034;-72
2022/09/15 05:04:03;;;;;;;110.78;37.08;;;;;;;11.84;100.00;100778.75;5282488;28;20122;-73
2022/09/15 05:06:34;;;;;;;127.90;38.08;;;;;;;11.80;100.00;100772.03;5277063;28;20039;-74
2022/09/15 05:09:06;;;;;;;106.53;36.50;;;;;;;11.77;100.00;100769.69;5280720;28;20024;-74
2022/09/15 05:11:37;;;;;;;117.05;33.97;;;;;;;11.74;100.00;100780.78;5276352;28;20028;-74
2022/09/15 05:14:09;;;;;;;112.05;32.90;;;;;;;11.70;100.00;100777.63;5282512;28;20420;-73
2022/09/15 05:16:40;;;;;;;117.25;32.80;;;;;;;11.65;100.00;100782.69;5286707;28;20116;-74
2022/09/15 05:19:10;;;;;;;111.18;28.27;;;;;;;11.61;100.00;100778.69;5285982;28;20437;-74
2022/09/15 05:21:41;;;;;;;93.97;30.60;;;;;;;11.60;100.00;100782.38;5273342;28;20032;-73
2022/09/15 05:24:11;;;;;;;134.27;38.60;;;;;;;11.63;100.00;100782.00;5271719;28;20035;-73
2022/09/15 05:26:42;;;;;;;103.82;34.17;;;;;;;11.68;100.00;100785.84;5286508;28;20059;-74
2022/09/15 05:29:13;;;;;;;130.70;36.38;;;;;;;11.75;100.00;100785.19;5278048;28;20020;-73
2022/09/15 05:31:43;;;;;;;99.13;35.05;;;;;;;11.79;100.00;100786.47;5265552;28;20085;-73
2022/09/15 05:34:14;;;;;;;106.80;36.38;;;;;;;11.80;100.00;100790.84;5273355;28;20031;-73
2022/09/15 05:36:44;;;;;;;106.95;36.38;;;;;;;11.84;100.00;100794.88;5286427;28;20100;-73
2022/09/15 05:39:15;;;;;;;111.78;36.03;;;;;;;11.82;100.00;100796.91;5285909;28;20016;-73
2022/09/15 05:41:46;;;;;;;104.72;35.13;;;;;;;11.83;100.00;100793.22;5281597;28;20528;-74
2022/09/15 05:44:16;;;;;;;123.22;37.50;;;;;;;11.84;100.00;100797.56;5265207;28;20094;-73
2022/09/15 05:46:47;;;;;;;105.63;33.42;;;;;;;11.85;100.00;100800.09;5287957;28;20054;-73
2022/09/15 05:49:18;;;;;;;111.65;35.97;;;;;;;11.88;100.00;100801.59;5290210;28;20042;-73
2022/09/15 05:51:48;;;;;;;91.10;32.15;;;;;;;11.91;100.00;100809.31;5290095;28;20028;-73
2022/09/15 05:54:19;;;;;;;109.32;36.05;;;;;;;11.95;100.00;100813.31;5288649;28;20016;-73
2022/09/15 05:56:49;;;;;;;100.70;35.15;;;;;;;12.04;100.00;100812.25;5277240;28;20453;-73
2022/09/15 05:59:20;;;;;;;118.90;37.60;;;;;;;12.13;100.00;100808.50;5275866;28;20035;-73
2022/09/15 06:01:50;;;;;;;136.82;39.90;;;;;;;12.24;100.00;100809.94;5281146;28;20369;-73
2022/09/15 06:04:20;;;;;;;113.90;34.33;;;;;;;12.30;100.00;100803.88;5288139;28;20503;-73
2022/09/15 06:06:51;;;;;;;114.13;37.25;;;;;;;12.36;100.00;100807.69;5289752;28;20051;-73
2022/09/15 06:09:21;;;;;;;110.07;37.22;;;;;;;12.42;100.00;100812.34;5289479;28;20111;-72
2022/09/15 06:11:52;;;;;;;111.30;36.83;;;;;;;12.53;100.00;100813.78;5289900;28;20030;-71
2022/09/15 06:14:23;;;;;;;122.00;38.30;;;;;;;12.61;100.00;100819.13;5274828;28;20503;-72
2022/09/15 06:16:53;;;;;;;110.38;38.25;;;;;;;12.70;100.00;100818.88;5272865;28;20077;-72
2022/09/15 06:19:24;;;;;;;118.15;37.42;;;;;;;12.82;100.00;100827.34;5281555;28;20027;-70
2022/09/15 06:21:54;;;;;;;105.53;36.65;;;;;;;12.95;100.00;100837.47;5273611;28;20020;-69
2022/09/15 06:24:24;;;;;;;107.80;37.17;;;;;;;13.02;100.00;100840.31;5266993;28;20035;-70
2022/09/15 06:26:55;;;;;;;95.82;34.10;;;;;;;13.06;100.00;100845.16;5270034;28;20030;-70
2022/09/15 06:29:25;;;;;;;112.30;37.95;;;;;;;13.12;100.00;100852.50;5289002;28;20514;-70
2022/09/15 06:32:01;;;;;;;96.45;36.08;;;;;;;13.16;100.00;100856.50;5275077;28;20023;-70
2022/09/15 06:34:32;;;;;;;93.28;36.53;;;;;;;13.20;100.00;100847.03;5280886;28;20488;-70
2022/09/15 06:37:02;;;;;;;102.38;38.83;;;;;;;13.19;100.00;100856.13;5269227;28;20105;-70
2022/09/15 06:39:33;;;;;;;94.15;35.15;;;;;;;13.23;100.00;100853.09;5267655;28;20482;-70
2022/09/15 06:42:04;;;;;;;90.72;36.08;;;;;;;13.29;100.00;100850.50;5288220;28;20329;-70
2022/09/15 06:44:34;;;;;;;89.60;34.85;;;;;;;13.31;100.00;100850.34;5268860;28;20023;-70
2022/09/15 06:47:06;;;;;;;96.13;34.22;;;;;;;13.32;100.00;100854.69;5267089;28;20606;-70
2022/09/15 06:49:36;;;;;;;79.30;33.72;;;;;;;13.34;100.00;100858.03;5283174;28;20037;-70
2022/09/15 06:52:07;;;;;;;82.18;34.35;;;;;;;13.35;100.00;100852.44;5261230;28;20031;-70
2022/09/15 06:54:37;;;;;;;86.75;34.42;;;;;;;13.38;100.00;100857.47;5280427;28;20030;-70
2022/09/15 06:57:08;;;;;;;80.40;34.67;;;;;;;13.43;100.00;100862.31;5266502;28;20458;-71
2022/09/15 06:59:38;;;;;;;80.82;33.88;;;;;;;13.54;100.00;100869.09;5272643;28;20032;-70
2022/09/15 07:02:09;;;;;;;85.40;34.78;;;;;;;13.59;100.00;100866.69;5280426;28;20439;-70
2022/09/15 07:04:39;;;;;;;84.90;34.60;;;;;;;13.60;100.00;100868.34;5285161;28;20027;-71
2022/09/15 07:07:10;;;;;;;75.30;33.78;;;;;;;13.65;100.00;100876.72;5286374;28;20026;-70
2022/09/15 07:09:40;;;;;;;94.30;35.58;;;;;;;13.71;100.00;100884.94;5277817;28;20100;-70
2022/09/15 07:12:11;;;;;;;85.95;36.00;;;;;;;13.77;100.00;100880.66;5266394;28;20043;-70
2022/09/15 07:14:41;;;;;;;85.60;33.55;;;;;;;13.89;100.00;100891.78;5285172;28;20046;-70
2022/09/15 07:17:12;;;;;;;82.28;34.75;;;;;;;13.96;100.00;100890.03;5285104;28;20058;-70
2022/09/15 07:19:44;;;;;;;81.88;35.72;;;;;;;14.02;100.00;100886.59;5285623;28;20032;-70
2022/09/15 07:22:14;;;;;;;78.28;35.45;;;;;;;14.10;100.00;100886.47;5232304;28;20512;-71
2022/09/15 07:24:45;;;;;;;86.63;35.40;;;;;;;14.20;100.00;100887.00;5275956;28;20115;-70
2022/09/15 07:27:16;;;;;;;80.78;36.30;;;;;;;14.39;100.00;100892.84;5278948;28;20453;-70
2022/09/15 07:29:47;;;;;;;86.03;36.55;;;;;;;14.64;100.00;100896.88;5242938;28;20578;-70
2022/09/15 07:32:17;;;;;;;77.13;35.97;;;;;;;15.27;100.00;100899.78;5278030;28;20026;-69
2022/09/15 07:34:48;;;;;;;59.55;30.80;;;;;;;15.59;100.00;100908.31;5271437;28;20022;-70
2022/09/15 07:37:18;;;;;;;54.17;28.63;;;;;;;15.66;100.00;100899.25;5284377;28;20077;-70
2022/09/15 07:39:49;;;;;;;58.42;28.75;;;;;;;15.67;100.00;100898.22;5283636;28;20102;-70
2022/09/15 07:42:20;;;;;;;54.67;27.58;;;;;;;15.66;100.00;100909.22;5283074;28;20608;-70
2022/09/15 07:44:51;;;;;;;54.85;29.23;;;;;;;15.57;100.00;100903.13;5281541;28;20173;-71
2022/09/15 07:47:21;;;;;;;55.08;30.23;;;;;;;15.53;100.00;100902.66;5283810;28;20041;-70
2022/09/15 07:49:52;;;;;;;58.00;29.83;;;;;;;15.55;100.00;100903.28;5283193;28;20458;-70
2022/09/15 07:52:22;;;;;;;55.85;28.70;;;;;;;15.57;100.00;100892.31;5283298;28;20305;-70
2022/09/15 07:54:53;;;;;;;53.63;28.23;;;;;;;15.62;100.00;100903.34;5246537;28;20031;-71
2022/09/15 07:57:23;;;;;;;46.83;25.90;;;;;;;15.67;100.00;100910.91;5283510;28;20099;-70
2022/09/15 07:59:54;;;;;;;58.53;28.35;;;;;;;15.65;100.00;100912.97;5282399;28;20361;-70
2022/09/15 08:02:24;;;;;;;57.85;26.98;;;;;;;15.65;100.00;100913.78;5281660;28;20100;-70
2022/09/15 08:04:55;;;;;;;52.95;28.05;;;;;;;15.71;100.00;100923.84;5282884;28;20114;-70
2022/09/15 08:07:25;;;;;;;54.35;27.85;;;;;;;15.75;100.00;100919.69;5282774;28;20031;-70
2022/09/15 08:09:56;;;;;;;50.38;26.35;;;;;;;15.74;100.00;100928.84;5283293;28;20029;-70
2022/09/15 08:12:26;;;;;;;51.50;27.42;;;;;;;15.82;100.00;100919.75;5282360;28;20094;-70
2022/09/15 08:14:57;;;;;;;57.38;28.40;;;;;;;15.84;100.00;100919.53;5282191;28;20478;-70
2022/09/15 08:17:27;;;;;;;51.20;26.60;;;;;;;15.89;100.00;100917.06;5283116;28;20023;-71
2022/09/15 08:19:58;;;;;;;53.55;26.77;;;;;;;15.91;100.00;100926.63;5282169;28;20031;-70
2022/09/15 08:22:28;;;;;;;52.28;28.02;;;;;;;15.99;100.00;100925.66;5280647;28;20176;-71
2022/09/15 08:24:59;;;;;;;51.08;26.88;;;;;;;16.13;100.00;100926.56;5281339;28;20041;-71
2022/09/15 08:27:29;;;;;;;47.95;26.05;;;;;;;16.50;100.00;100923.38;5282885;28;20046;-70
2022/09/15 08:29:59;;;;;;;37.65;22.27;;;;;;;17.59;100.00;100928.53;5281732;28;20122;-70
2022/09/15 08:32:30;;;;;;;39.00;23.20;;;;;;;18.56;100.00;100931.41;5282638;28;20020;-70
2022/09/15 08:35:00;;;;;;;33.20;19.63;;;;;;;19.25;100.00;100927.88;5280963;28;20039;-70
2022/09/15 08:37:31;;;;;;;28.20;16.75;;;;;;;20.12;100.00;100939.59;5282225;28;20016;-70
2022/09/15 08:40:02;;;;;;;31.35;17.83;;;;;;;20.83;100.00;100927.19;5282093;28;20019;-70
2022/09/15 08:42:33;;;;;;;29.00;16.05;;;;;;;21.34;100.00;100933.19;5281560;28;20031;-70
2022/09/15 08:45:15;;;;;;;24.52;12.68;;;;;;;21.95;100.00;100938.16;5281751;28;20076;-70
2022/09/15 08:47:50;;;;;;;26.88;14.10;;;;;;;22.25;100.00;100942.66;5281453;28;20015;-70
2022/09/15 08:50:28;;;;;;;21.33;13.77;;;;;;;21.58;100.00;100937.56;5282039;28;20020;-70
2022/09/15 08:53:05;;;;;;;22.15;14.38;;;;;;;21.15;100.00;100944.13;5281983;28;20031;-70
2022/09/15 08:55:55;;;;;;;27.40;12.40;;;;;;;20.34;100.00;100948.16;5281978;28;20015;-70
2022/09/15 08:58:29;;;;;;;27.17;13.35;;;;;;;19.82;100.00;100955.00;5280302;28;20034;-70
2022/09/15 09:01:04;;;;;;;22.35;12.38;;;;;;;19.57;100.00;100958.56;5281474;28;20031;-71
2022/09/15 09:04:12;;;;;;;27.30;15.35;;;;;;;19.55;100.00;100968.00;5262723;28;20029;-70
2022/09/15 09:07:07;;;;;;;32.42;14.52;;;;;;;20.07;100.00;100968.59;5281429;28;20038;-70
2022/09/15 09:10:00;;;;;;;24.65;13.55;;;;;;;19.86;100.00;100973.41;5280643;28;20019;-70
2022/09/15 09:12:47;;;;;;;29.95;14.65;;;;;;;19.75;100.00;100965.16;5280994;28;20026;-70
2022/09/15 09:15:23;;;;;;;27.55;15.60;;;;;;;19.38;100.00;100959.59;5280297;28;20031;-71
2022/09/15 09:18:12;;;;;;;28.77;14.63;;;;;;;19.23;100.00;100961.75;5263692;28;20077;-71
2022/09/15 09:20:48;;;;;;;32.75;14.82;;;;;;;19.31;100.00;100962.34;5284221;28;20023;-71
2022/09/15 09:23:23;;;;;;;27.73;16.08;;;;;;;19.14;100.00;100953.06;5266758;28;20059;-71
2022/09/15 09:25:56;;;;;;;28.63;14.40;;;;;;;19.02;100.00;100960.22;5284894;28;20023;-71
2022/09/15 09:28:43;;;;;;;25.95;12.45;;;;;;;18.99;100.00;100966.97;5285937;28;20481;-71
2022/09/15 09:31:18;;;;;;;27.63;10.05;;;;;;;19.02;100.00;100971.94;5266785;28;20114;-70
2022/09/15 09:34:25;;;;;;;18.60;9.50;;;;;;;19.10;100.00;100963.53;5284896;28;20043;-70
2022/09/15 09:36:58;;;;;;;20.02;10.95;;;;;;;19.25;100.00;100965.94;5285620;28;20442;-70
2022/09/15 09:39:29;;;;;;;20.20;8.10;;;;;;;19.45;100.00;100963.06;5286130;28;20408;-71
2022/09/15 09:42:01;;;;;;;15.05;7.90;;;;;;;19.45;100.00;100960.34;5284543;28;20080;-71
2022/09/15 09:44:32;;;;;;;16.15;5.65;;;;;;;19.28;100.00;100960.06;5284112;28;20127;-71
2022/09/15 09:47:03;;;;;;;8.32;4.85;;;;;;;19.28;100.00;100960.06;5285455;28;20122;-70
2022/09/15 09:49:50;;;;;;;12.20;5.25;;;;;;;19.18;100.00;100973.31;5285746;28;20102;-70
2022/09/15 09:52:38;;;;;;;16.45;6.10;;;;;;;19.04;100.00;100958.16;5284201;28;20405;-70
2022/09/15 09:55:27;;;;;;;19.02;7.10;;;;;;;18.85;100.00;100955.31;5284899;28;20695;-71
2022/09/15 09:58:16;;;;;;;14.68;6.50;;;;;;;18.77;100.00;100958.28;5285423;28;20112;-71
2022/09/15 10:00:46;;;;;;;16.73;8.00;;;;;;;18.77;100.00;100952.03;5285002;28;20553;-70
2022/09/15 10:03:21;;;;;;;15.10;8.00;;;;;;;18.67;100.00;100948.91;5285209;28;20035;-71
2022/09/15 10:06:05;;;;;;;17.20;7.15;;;;;;;18.68;100.00;100953.31;5266098;28;20107;-71
2022/09/15 10:08:37;;;;;;;12.88;5.35;;;;;;;18.70;100.00;100957.50;5285366;28;20023;-71
2022/09/15 10:11:09;;;;;;;12.27;4.40;;;;;;;18.52;100.00;100951.91;5284351;28;20098;-71
2022/09/15 10:13:51;;;;;;;8.20;3.75;;;;;;;18.21;100.00;100950.78;5284239;28;20020;-71
2022/09/15 10:16:22;;;;;;;12.45;3.80;;;;;;;18.05;100.00;100937.69;5285357;28;20015;-70
2022/09/15 10:18:56;;;;;;;11.50;2.85;;;;;;;17.93;100.00;100951.06;5285341;28;20031;-70
2022/09/15 10:21:27;;;;;;;10.73;3.47;;;;;;;17.89;100.00;100949.00;5284928;28;20074;-70
2022/09/15 10:24:22;;;;;;;11.32;4.85;;;;;;;17.76;100.00;100956.09;5284800;28;20066;-69
2022/09/15 10:27:07;;;;;;;10.95;3.53;;;;;;;17.80;100.00;100951.91;5285414;28;20023;-70
2022/09/15 10:29:38;;;;;;;11.32;4.50;;;;;;;17.83;100.00;100948.78;5284570;28;20088;-71
2022/09/15 10:32:29;;;;;;;15.35;4.68;;;;;;;17.92;100.00;100946.66;5283006;28;20039;-70
2022/09/15 10:35:11;;;;;;;13.77;3.25;;;;;;;18.07;100.00;100943.72;5283770;28;20110;-70
2022/09/15 10:37:59;;;;;;;6.97;2.90;;;;;;;18.26;100.00;100940.09;5285103;28;20028;-70
2022/09/15 10:40:38;;;;;;;9.50;3.15;;;;;;;18.34;100.00;100942.59;5285169;28;20361;-70
2022/09/15 10:43:45;;;;;;;6.38;2.25;;;;;;;18.47;100.00;100949.84;5283085;28;20062;-70
2022/09/15 10:46:39;;;;;;;9.02;2.70;;;;;;;18.40;100.00;100954.47;5283824;28;20023;-70
2022/09/15 10:49:44;;;;;;;10.77;3.25;;;;;;;18.32;100.00;100954.69;5284140;28;20021;-70
2022/09/15 10:52:35;;;;;;;10.50;3.50;;;;;;;18.12;100.00;100949.34;5283794;28;20084;-70
2022/09/15 10:55:24;;;;;;;15.07;4.07;;;;;;;18.00;100.00;100954.59;5282476;28;20106;-70
2022/09/15 10:58:07;;;;;;;9.32;3.72;;;;;;;17.93;100.00;100950.25;5284163;28;20039;-70
2022/09/15 11:00:49;;;;;;;6.45;2.80;;;;;;;17.87;100.00;100954.63;5278226;28;20027;-70
2022/09/15 11:03:43;;;;;;;11.30;2.75;;;;;;;17.69;100.00;100957.97;5276935;28;20500;-70
2022/09/15 11:06:24;;;;;;;10.50;2.22;;;;;;;17.56;100.00;100971.53;5266176;28;20055;-70
2022/09/15 11:09:19;;;;;;;11.65;2.78;;;;;;;17.43;100.00;100969.66;5277612;28;20019;-70
2022/09/15 11:12:16;;;;;;;9.47;2.77;;;;;;;17.29;100.00;100957.97;5277095;28;20035;-70
2022/09/15 11:15:10;;;;;;;9.35;2.88;;;;;;;17.17;100.00;100969.63;5278985;28;20066;-70
2022/09/15 11:18:16;;;;;;;9.40;2.67;;;;;;;17.17;100.00;100973.19;5282688;28;20032;-70
2022/09/15 11:21:15;;;;;;;6.40;2.40;;;;;;;17.04;100.00;100967.75;5278148;28;20031;-70
2022/09/15 11:24:22;;;;;;;10.98;2.40;;;;;;;17.01;100.00;100966.25;5285051;28;20500;-70
2022/09/15 11:27:01;;;;;;;5.78;2.90;;;;;;;17.11;100.00;100968.56;5280899;28;20425;-70
2022/09/15 11:29:38;;;;;;;9.98;3.15;;;;;;;17.25;100.00;100970.25;5273821;28;20020;-70
2022/09/15 11:32:17;;;;;;;9.85;3.08;;;;;;;17.44;100.00;100979.47;5261593;28;20034;-70
2022/09/15 11:34:55;;;;;;;14.00;3.15;;;;;;;17.65;100.00;100983.84;5278925;28;20388;-70
2022/09/15 11:37:37;;;;;;;6.00;2.75;;;;;;;17.84;100.00;100990.34;5274176;28;20019;-70
2022/09/15 11:40:27;;;;;;;10.43;3.30;;;;;;;17.85;100.00;100992.00;5285241;28;20386;-70